createdAt,value
2023-05-24T00:01:56.912Z,13.10
2023-05-24T00:04:25.401Z,15.33
2023-05-24T00:06:55.063Z,12.53
2023-05-24T00:09:21.932Z,13.17
2023-05-24T00:11:48.687Z,11.10
2023-05-24T00:14:15.813Z,11.10
2023-05-24T00:16:42.567Z,12.07
2023-05-24T00:19:11.303Z,12.63
2023-05-24T00:21:38.414Z,12.97
2023-05-24T00:24:06.450Z,11.60
2023-05-24T00:26:33.060Z,7.97
2023-05-24T00:28:59.675Z,14.77
2023-05-24T00:31:26.288Z,12.83
2023-05-24T00:33:52.909Z,11.57
2023-05-24T00:36:19.604Z,14.77
2023-05-24T00:38:46.233Z,15.00
2023-05-24T00:41:13.051Z,10.27
2023-05-24T00:43:39.737Z,12.97
2023-05-24T00:46:22.517Z,9.93
2023-05-24T00:48:49.812Z,8.20
2023-05-24T00:51:16.693Z,11.97
2023-05-24T00:53:49.169Z,12.83
2023-05-24T00:56:17.162Z,12.80
2023-05-24T00:58:44.519Z,8.73
2023-05-24T01:01:11.622Z,11.97
2023-05-24T01:03:39.611Z,12.43
2023-05-24T01:06:08.038Z,13.10
2023-05-24T01:08:42.677Z,10.20
2023-05-24T01:11:27.556Z,9.87
2023-05-24T01:14:38.833Z,10.63
2023-05-24T01:17:21.041Z,8.47
2023-05-24T01:20:10.198Z,8.43
2023-05-24T01:23:06.332Z,7.93
2023-05-24T01:26:00.965Z,14.70
2023-05-24T01:28:28.024Z,6.37
2023-05-24T01:30:56.028Z,10.47
2023-05-24T01:33:22.739Z,11.90
2023-05-24T01:35:49.408Z,12.00
2023-05-24T01:38:16.187Z,9.33
2023-05-24T01:40:43.481Z,10.40
2023-05-24T01:43:38.789Z,10.80
2023-05-24T01:46:25.353Z,10.47
2023-05-24T01:49:20.504Z,10.03
2023-05-24T01:51:58.052Z,12.30
2023-05-24T01:54:28.221Z,9.10
2023-05-24T01:56:57.354Z,12.63
2023-05-24T01:59:27.667Z,9.60
2023-05-24T02:01:55.043Z,8.20
2023-05-24T02:04:21.693Z,9.67
2023-05-24T02:06:48.288Z,11.90
2023-05-24T02:09:14.931Z,8.53
2023-05-24T02:11:41.644Z,9.70
2023-05-24T02:14:08.365Z,10.87
2023-05-24T02:16:35.053Z,10.60
2023-05-24T02:19:01.806Z,7.60
2023-05-24T02:21:28.831Z,8.77
2023-05-24T02:23:55.481Z,8.50
2023-05-24T02:26:22.109Z,12.77
2023-05-24T02:28:48.725Z,13.50
2023-05-24T02:31:15.560Z,8.97
2023-05-24T02:33:42.241Z,11.07
2023-05-24T02:36:08.973Z,9.70
2023-05-24T02:38:37.160Z,12.23
2023-05-24T02:41:03.862Z,10.73
2023-05-24T02:43:30.470Z,9.63
2023-05-24T02:45:57.199Z,7.60
2023-05-24T02:48:23.879Z,10.50
2023-05-24T02:50:50.574Z,9.97
2023-05-24T02:53:17.182Z,9.07
2023-05-24T02:55:44.104Z,11.20
2023-05-24T02:58:12.093Z,8.47
2023-05-24T03:00:38.814Z,11.63
2023-05-24T03:03:05.678Z,9.33
2023-05-24T03:05:32.394Z,11.30
2023-05-24T03:07:59.052Z,7.87
2023-05-24T03:10:25.708Z,16.37
2023-05-24T03:12:52.320Z,12.73
2023-05-24T03:15:19.033Z,12.50
2023-05-24T03:17:45.670Z,12.00
2023-05-24T03:20:13.037Z,11.00
2023-05-24T03:22:39.721Z,14.90
2023-05-24T03:25:08.634Z,12.17
2023-05-24T03:27:36.457Z,12.10
2023-05-24T03:30:03.449Z,11.87
2023-05-24T03:32:30.075Z,16.30
2023-05-24T03:34:57.640Z,11.80
2023-05-24T03:37:24.299Z,15.40
2023-05-24T03:39:50.912Z,11.33
2023-05-24T03:42:17.498Z,14.13
2023-05-24T03:44:44.236Z,12.93
2023-05-24T03:47:10.972Z,12.30
2023-05-24T03:49:37.649Z,12.60
2023-05-24T03:52:04.412Z,10.33
2023-05-24T03:54:31.004Z,12.53
2023-05-24T03:56:57.600Z,12.67
2023-05-24T03:59:24.219Z,12.60
2023-05-24T04:01:50.876Z,11.87
2023-05-24T04:04:17.670Z,15.80
2023-05-24T04:06:44.362Z,15.33
2023-05-24T04:09:11.017Z,11.57
2023-05-24T04:11:37.655Z,10.77
2023-05-24T04:14:04.441Z,12.40
2023-05-24T04:16:34.102Z,11.50
2023-05-24T04:19:03.728Z,9.83
2023-05-24T04:21:32.001Z,14.60
2023-05-24T04:24:01.406Z,10.80
2023-05-24T04:26:28.231Z,13.57
2023-05-24T04:28:54.817Z,10.03
2023-05-24T04:31:21.841Z,10.60
2023-05-24T04:33:49.956Z,13.33
2023-05-24T04:36:17.689Z,11.63
2023-05-24T04:38:45.703Z,18.40
2023-05-24T04:41:12.698Z,8.70
2023-05-24T04:43:39.324Z,9.97
2023-05-24T04:46:08.349Z,14.57
2023-05-24T04:48:35.724Z,11.77
2023-05-24T04:51:02.824Z,13.80
2023-05-24T04:53:29.497Z,15.23
2023-05-24T04:55:56.184Z,11.87
2023-05-24T04:58:22.820Z,10.13
2023-05-24T05:00:49.512Z,13.53
2023-05-24T05:03:16.503Z,12.17
2023-05-24T05:05:43.321Z,13.93
2023-05-24T05:08:10.013Z,12.10
2023-05-24T05:10:37.122Z,15.80
2023-05-24T05:13:04.663Z,18.57
2023-05-24T05:15:31.361Z,19.10
2023-05-24T05:17:58.112Z,14.87
2023-05-24T05:20:25.424Z,18.53
2023-05-24T05:22:52.066Z,16.80
2023-05-24T05:25:18.869Z,14.03
2023-05-24T05:27:45.654Z,18.20
2023-05-24T05:30:12.758Z,16.80
2023-05-24T05:32:39.421Z,15.80
2023-05-24T05:35:06.677Z,15.50
2023-05-24T05:37:33.320Z,20.33
2023-05-24T05:39:59.986Z,20.87
2023-05-24T05:42:26.785Z,17.10
2023-05-24T05:44:53.426Z,15.00
2023-05-24T05:47:20.094Z,20.30
2023-05-24T05:49:46.778Z,15.50
2023-05-24T05:52:13.571Z,17.47
2023-05-24T05:54:40.235Z,22.50
2023-05-24T05:57:10.359Z,21.43
2023-05-24T05:59:38.152Z,19.47
2023-05-24T06:02:06.570Z,24.97
2023-05-24T06:04:33.909Z,19.73
2023-05-24T06:07:00.617Z,15.23
2023-05-24T06:09:27.232Z,15.90
2023-05-24T06:11:53.911Z,17.20
2023-05-24T06:14:22.158Z,12.70
2023-05-24T06:16:48.895Z,15.17
2023-05-24T06:19:16.549Z,16.77
2023-05-24T06:21:47.693Z,28.77
2023-05-24T06:24:15.567Z,23.33
2023-05-24T06:26:43.390Z,18.00
2023-05-24T06:29:09.986Z,20.23
2023-05-24T06:31:36.779Z,18.87
2023-05-24T06:34:04.654Z,18.37
2023-05-24T06:36:41.318Z,21.30
2023-05-24T06:39:11.525Z,21.63
2023-05-24T06:41:39.005Z,17.87
2023-05-24T06:44:05.756Z,19.60
2023-05-24T06:46:32.869Z,20.33
2023-05-24T06:48:59.599Z,15.70
2023-05-24T06:51:26.476Z,16.67
2023-05-24T06:53:53.336Z,22.50
2023-05-24T06:56:20.156Z,19.17
2023-05-24T06:58:47.175Z,18.10
2023-05-24T07:01:14.509Z,20.83
2023-05-24T07:03:41.426Z,18.83
2023-05-24T07:06:10.081Z,15.30
2023-05-24T07:08:36.796Z,16.07
2023-05-24T07:11:03.508Z,15.93
2023-05-24T07:13:30.366Z,22.00
2023-05-24T07:15:57.004Z,13.80
2023-05-24T07:18:23.649Z,16.87
2023-05-24T07:20:50.481Z,17.03
2023-05-24T07:23:17.466Z,18.00
2023-05-24T07:25:44.060Z,22.60
2023-05-24T07:28:10.750Z,20.00
2023-05-24T07:30:39.255Z,16.13
2023-05-24T07:33:05.993Z,19.00
2023-05-24T07:35:32.961Z,19.50
2023-05-24T07:37:59.604Z,17.13
2023-05-24T07:40:26.529Z,15.20
2023-05-24T07:42:53.227Z,13.93
2023-05-24T07:45:20.482Z,24.20
2023-05-24T07:47:47.231Z,21.00
2023-05-24T07:50:13.907Z,19.10
2023-05-24T07:52:42.297Z,14.23
2023-05-24T07:55:09.249Z,21.93
2023-05-24T07:57:36.060Z,17.93
2023-05-24T08:00:10.277Z,16.17
2023-05-24T08:02:37.066Z,16.73
2023-05-24T08:05:05.095Z,13.10
2023-05-24T08:07:31.676Z,14.57
2023-05-24T08:09:58.273Z,12.77
2023-05-24T08:12:26.016Z,16.23
2023-05-24T08:14:52.793Z,13.30
2023-05-24T08:17:19.439Z,17.57
2023-05-24T08:19:46.514Z,14.47
2023-05-24T08:22:13.601Z,17.00
2023-05-24T08:24:40.685Z,12.83
2023-05-24T08:27:07.604Z,17.00
2023-05-24T08:29:35.638Z,20.17
2023-05-24T08:32:02.799Z,14.23
2023-05-24T08:34:29.869Z,33.53
2023-05-24T08:36:56.557Z,15.40
2023-05-24T08:39:23.775Z,18.80
2023-05-24T08:42:04.905Z,14.37
2023-05-24T08:44:42.028Z,14.43
2023-05-24T08:47:09.776Z,17.43
2023-05-24T08:49:38.963Z,17.00
2023-05-24T08:52:07.673Z,17.57
2023-05-24T08:54:37.730Z,19.43
2023-05-24T08:57:05.825Z,20.03
2023-05-24T08:59:32.662Z,17.00
2023-05-24T09:02:01.671Z,15.57
2023-05-24T09:04:29.169Z,13.47
2023-05-24T09:06:57.025Z,18.07
2023-05-24T09:09:27.912Z,13.63
2023-05-24T09:11:59.090Z,17.37
2023-05-24T09:14:25.847Z,14.50
2023-05-24T09:16:52.585Z,13.53
2023-05-24T09:19:19.887Z,21.23
2023-05-24T09:21:47.662Z,17.77
2023-05-24T09:24:14.312Z,12.77
2023-05-24T09:26:40.934Z,15.63
2023-05-24T09:29:09.238Z,15.23
2023-05-24T09:31:38.834Z,16.03
2023-05-24T09:34:11.467Z,17.17
2023-05-24T09:36:43.052Z,18.00
2023-05-24T09:39:10.574Z,16.93
2023-05-24T09:41:38.027Z,11.27
2023-05-24T09:44:05.830Z,12.63
2023-05-24T09:46:38.783Z,13.80
2023-05-24T09:49:07.937Z,17.02
2023-05-24T09:51:38.263Z,14.38
2023-05-24T09:54:05.613Z,13.00
2023-05-24T09:56:33.737Z,13.98
2023-05-24T09:59:08.996Z,12.13
2023-05-24T10:01:36.214Z,17.02
2023-05-24T10:04:09.216Z,10.93
2023-05-24T10:06:40.088Z,13.63
2023-05-24T10:09:08.947Z,11.70
2023-05-24T10:11:39.072Z,12.18
2023-05-24T10:14:07.364Z,13.52
2023-05-24T10:16:34.127Z,11.23
2023-05-24T10:19:00.908Z,11.77
2023-05-24T10:21:31.603Z,16.77
2023-05-24T10:24:02.194Z,13.38
2023-05-24T10:26:32.689Z,16.45
2023-05-24T10:29:06.977Z,14.45
2023-05-24T10:31:37.439Z,14.02
2023-05-24T10:34:08.633Z,12.32
2023-05-24T10:36:36.944Z,15.00
2023-05-24T10:39:04.202Z,9.75
2023-05-24T10:41:39.355Z,9.15
2023-05-24T10:44:12.149Z,10.88
2023-05-24T10:47:10.039Z,10.68
2023-05-24T10:49:38.775Z,10.63
2023-05-24T10:52:10.000Z,11.38
2023-05-24T10:54:39.891Z,7.68
2023-05-24T10:57:08.274Z,8.75
2023-05-24T10:59:38.017Z,9.73
2023-05-24T11:02:12.924Z,8.30
2023-05-24T11:04:43.358Z,12.98
2023-05-24T11:07:11.591Z,9.68
2023-05-24T11:09:46.064Z,9.73
2023-05-24T11:12:20.746Z,10.43
2023-05-24T11:14:52.323Z,9.25
2023-05-24T11:17:22.148Z,12.25
2023-05-24T11:19:53.873Z,10.90
2023-05-24T11:22:22.407Z,10.57
2023-05-24T11:24:49.203Z,8.50
2023-05-24T11:27:15.962Z,11.35
2023-05-24T11:29:47.376Z,10.25
2023-05-24T11:32:19.589Z,15.68
2023-05-24T11:34:47.270Z,11.48
2023-05-24T11:37:16.884Z,11.85
2023-05-24T11:39:49.084Z,8.85
2023-05-24T11:42:16.230Z,12.60
2023-05-24T11:44:42.952Z,9.55
2023-05-24T11:47:09.642Z,8.65
2023-05-24T11:49:36.463Z,7.43
2023-05-24T11:52:03.823Z,9.35
2023-05-24T11:54:33.399Z,10.93
2023-05-24T11:57:00.168Z,9.43
2023-05-24T11:59:28.970Z,11.75
2023-05-24T12:02:03.832Z,7.20
2023-05-24T12:04:32.101Z,7.00
2023-05-24T12:06:59.134Z,8.82
2023-05-24T12:09:26.080Z,8.25
2023-05-24T12:11:53.491Z,12.90
2023-05-24T12:14:24.107Z,8.77
2023-05-24T12:16:51.016Z,8.18
2023-05-24T12:19:31.686Z,10.00
2023-05-24T12:21:59.897Z,9.65
2023-05-24T12:24:27.708Z,10.75
2023-05-24T12:27:02.068Z,10.32
2023-05-24T12:29:37.586Z,10.35
2023-05-24T12:32:04.685Z,7.22
2023-05-24T12:34:32.096Z,7.60
2023-05-24T12:36:59.666Z,10.20
2023-05-24T12:39:37.476Z,7.25
2023-05-24T12:42:04.846Z,11.25
2023-05-24T12:44:34.457Z,10.18
2023-05-24T12:47:03.540Z,6.95
2023-05-24T12:49:32.294Z,9.27
2023-05-24T12:51:59.595Z,9.18
2023-05-24T12:54:28.291Z,8.80
2023-05-24T12:56:56.901Z,8.57
2023-05-24T12:59:24.217Z,9.23
2023-05-24T13:01:51.916Z,8.52
2023-05-24T13:04:21.035Z,9.15
2023-05-24T13:06:48.862Z,7.45
2023-05-24T13:09:18.491Z,9.07
2023-05-24T13:11:45.603Z,6.88
2023-05-24T13:14:12.757Z,8.90
2023-05-24T13:16:39.590Z,6.63
2023-05-24T13:19:06.480Z,9.82
2023-05-24T13:21:33.618Z,12.90
2023-05-24T13:24:00.297Z,10.90
2023-05-24T13:26:27.761Z,8.73
2023-05-24T13:29:26.707Z,12.10
2023-05-24T13:31:41.893Z,10.32
2023-05-24T13:34:10.853Z,7.90
2023-05-24T13:36:38.139Z,8.23
2023-05-24T13:39:15.734Z,7.20
2023-05-24T13:41:44.519Z,6.40
2023-05-24T13:44:15.629Z,9.38
2023-05-24T13:46:43.335Z,8.88
2023-05-24T13:49:11.273Z,10.68
2023-05-24T13:51:38.777Z,9.50
2023-05-24T13:54:07.407Z,9.50
2023-05-24T13:56:35.095Z,10.23
2023-05-24T13:59:03.403Z,10.23
2023-05-24T14:01:30.935Z,10.48
2023-05-24T14:03:58.230Z,13.18
2023-05-24T14:06:24.988Z,8.18
2023-05-24T14:08:52.254Z,9.02
2023-05-24T14:11:22.332Z,8.65
2023-05-24T14:16:19.360Z,8.95
2023-05-24T14:18:49.268Z,13.88
2023-05-24T14:21:16.380Z,11.15
2023-05-24T14:23:43.270Z,10.32
2023-05-24T14:26:10.958Z,8.90
2023-05-24T14:28:37.903Z,10.13
2023-05-24T14:31:04.747Z,11.77
2023-05-24T14:33:31.497Z,12.23
2023-05-24T14:35:58.233Z,8.70
2023-05-24T14:38:25.433Z,9.48
2023-05-24T14:40:52.547Z,11.23
2023-05-24T14:43:19.395Z,8.73
2023-05-24T14:45:46.464Z,9.52
2023-05-24T14:48:16.634Z,11.20
2023-05-24T14:50:43.439Z,8.02
2023-05-24T14:53:12.331Z,5.43
2023-05-24T14:55:41.150Z,11.73
2023-05-24T14:58:12.211Z,9.25
2023-05-24T15:00:39.908Z,9.18
2023-05-24T15:03:08.501Z,8.30
2023-05-24T15:05:36.248Z,10.25
2023-05-24T15:08:03.210Z,9.48
2023-05-24T15:10:30.073Z,10.15
2023-05-24T15:13:00.844Z,9.18
2023-05-24T15:15:27.480Z,8.48
2023-05-24T15:17:54.206Z,10.90
2023-05-24T15:20:21.393Z,9.07
2023-05-24T15:22:48.259Z,7.47
2023-05-24T15:25:15.029Z,8.70
2023-05-24T15:27:41.695Z,9.85
2023-05-24T15:30:11.487Z,6.05
2023-05-24T15:32:38.263Z,10.68
2023-05-24T15:35:06.242Z,8.48
2023-05-24T15:37:33.165Z,8.13
2023-05-24T15:40:00.413Z,7.50
2023-05-24T15:42:30.618Z,11.82
2023-05-24T15:44:57.385Z,9.60
2023-05-24T15:47:28.977Z,10.38
2023-05-24T15:49:56.336Z,7.63
2023-05-24T15:52:23.333Z,8.90
2023-05-24T15:54:49.996Z,10.27
2023-05-24T15:57:16.747Z,9.15
2023-05-24T15:59:43.419Z,10.95
2023-05-24T16:02:13.485Z,8.50
2023-05-24T16:04:40.454Z,11.20
2023-05-24T16:07:07.174Z,10.73
2023-05-24T16:09:34.350Z,8.57
2023-05-24T16:12:01.559Z,8.95
2023-05-24T16:14:28.535Z,8.18
2023-05-24T16:16:58.563Z,13.05
2023-05-24T16:19:25.728Z,7.18
2023-05-24T16:21:52.445Z,8.27
2023-05-24T16:24:20.007Z,7.60
2023-05-24T16:26:46.812Z,10.43
2023-05-24T16:29:15.026Z,8.02
2023-05-24T16:31:41.704Z,7.78
2023-05-24T16:34:08.394Z,10.68
2023-05-24T16:36:35.198Z,8.57
2023-05-24T16:39:02.098Z,10.35
2023-05-24T16:41:34.727Z,9.27
2023-05-24T16:44:01.534Z,8.15
2023-05-24T16:46:28.381Z,8.75
2023-05-24T16:48:55.068Z,11.27
2023-05-24T16:51:21.798Z,6.38
2023-05-24T16:53:51.694Z,10.02
2023-05-24T16:56:18.508Z,9.18
2023-05-24T16:58:45.349Z,6.78
2023-05-24T17:01:11.966Z,10.88
2023-05-24T17:03:38.808Z,9.40
2023-05-24T17:06:06.159Z,7.85
2023-05-24T17:08:36.768Z,9.23
2023-05-24T17:11:04.255Z,10.20
2023-05-24T17:13:31.560Z,10.35
2023-05-24T17:15:59.829Z,11.13
2023-05-24T17:18:29.729Z,10.77
2023-05-24T17:21:04.351Z,9.10
2023-05-24T17:23:32.819Z,9.77
2023-05-24T17:25:59.601Z,8.05
2023-05-24T17:28:30.024Z,9.13
2023-05-24T17:30:58.623Z,9.93
2023-05-24T17:33:27.847Z,10.70
2023-05-24T17:35:57.815Z,9.60
2023-05-24T17:38:25.325Z,12.07
2023-05-24T17:40:59.623Z,9.77
2023-05-24T17:43:32.699Z,14.05
2023-05-24T17:46:06.286Z,10.30
2023-05-24T17:48:37.362Z,10.30
2023-05-24T17:51:08.530Z,13.02
2023-05-24T17:53:36.667Z,10.07
2023-05-24T17:56:04.597Z,8.73
2023-05-24T17:58:32.807Z,12.30
2023-05-24T18:00:59.519Z,9.45
2023-05-24T18:03:26.318Z,9.88
2023-05-24T18:05:52.986Z,10.60
2023-05-24T18:08:19.588Z,11.45
2023-05-24T18:10:46.229Z,8.77
2023-05-24T18:13:13.109Z,7.63
2023-05-24T18:15:40.003Z,14.23
2023-05-24T18:18:06.731Z,7.22
2023-05-24T18:20:33.952Z,9.02
2023-05-24T18:23:00.684Z,14.10
2023-05-24T18:25:27.492Z,11.52
2023-05-24T18:27:54.765Z,8.30
2023-05-24T18:30:21.563Z,6.97
2023-05-24T18:33:03.430Z,8.82
2023-05-24T18:35:32.380Z,9.63
2023-05-24T18:37:59.017Z,9.98
2023-05-24T18:40:25.753Z,8.35
2023-05-24T18:42:52.792Z,11.48
2023-05-24T18:45:19.455Z,10.77
2023-05-24T18:47:46.157Z,12.45
2023-05-24T18:50:12.822Z,11.60
2023-05-24T18:52:39.623Z,11.93
2023-05-24T18:55:10.532Z,10.73
2023-05-24T18:57:37.964Z,10.02
2023-05-24T19:00:05.895Z,10.63
2023-05-24T19:02:38.366Z,11.25
2023-05-24T19:05:07.458Z,9.98
2023-05-24T19:07:35.310Z,11.32
2023-05-24T19:10:02.589Z,8.98
2023-05-24T19:12:30.050Z,11.50
2023-05-24T19:14:56.916Z,11.02
2023-05-24T19:17:24.869Z,11.45
2023-05-24T19:19:52.060Z,7.72
2023-05-24T19:22:18.836Z,10.63
2023-05-24T19:24:45.694Z,7.65
2023-05-24T19:27:12.322Z,12.05
2023-05-24T19:29:39.891Z,7.72
2023-05-24T19:32:12.076Z,9.60
2023-05-24T19:34:42.164Z,12.17
2023-05-24T19:37:09.618Z,11.98
2023-05-24T19:39:37.506Z,11.80
2023-05-24T19:42:07.195Z,11.63
2023-05-24T19:44:34.127Z,11.32
2023-05-24T19:47:00.783Z,8.85
2023-05-24T19:49:27.470Z,12.83
2023-05-24T19:51:54.182Z,17.70
2023-05-24T19:54:21.331Z,12.95
2023-05-24T19:56:52.077Z,11.77
2023-05-24T19:59:18.760Z,16.57
2023-05-24T20:01:45.615Z,10.23
2023-05-24T20:04:13.405Z,10.20
2023-05-24T20:06:40.346Z,8.70
2023-05-24T20:09:07.099Z,9.03
2023-05-24T20:11:34.584Z,9.40
2023-05-24T20:14:01.516Z,11.93
2023-05-24T20:16:29.220Z,10.00
2023-05-24T20:18:56.929Z,12.63
2023-05-24T20:21:23.648Z,11.93
2023-05-24T20:23:57.613Z,12.73
2023-05-24T20:26:25.316Z,11.45
2023-05-24T20:28:52.124Z,14.70
2023-05-24T20:31:18.977Z,11.13
2023-05-24T20:33:46.041Z,12.13
2023-05-24T20:36:14.917Z,12.43
2023-05-24T20:38:41.643Z,8.93
2023-05-24T20:41:08.268Z,11.57
2023-05-24T20:43:35.070Z,12.17
2023-05-24T20:46:02.096Z,12.70
2023-05-24T20:48:28.845Z,12.87
2023-05-24T20:50:55.517Z,11.40
2023-05-24T20:53:22.210Z,18.03
2023-05-24T20:55:49.019Z,13.67
2023-05-24T20:58:17.175Z,10.90
2023-05-24T21:00:43.867Z,14.27
2023-05-24T21:03:10.931Z,9.73
2023-05-24T21:05:39.664Z,10.87
2023-05-24T21:08:06.550Z,11.83
2023-05-24T21:10:33.215Z,13.10
2023-05-24T21:12:59.851Z,12.03
2023-05-24T21:15:26.558Z,14.40
2023-05-24T21:17:53.178Z,14.50
2023-05-24T21:20:19.898Z,9.43
2023-05-24T21:22:47.227Z,13.63
2023-05-24T21:25:13.832Z,13.93
2023-05-24T21:27:40.643Z,16.53
2023-05-24T21:30:08.058Z,10.90
2023-05-24T21:32:34.704Z,10.97
2023-05-24T21:35:01.344Z,9.77
2023-05-24T21:37:27.978Z,10.80
2023-05-24T21:39:54.815Z,13.43
2023-05-24T21:42:21.384Z,9.27
2023-05-24T21:44:47.980Z,12.97
2023-05-24T21:47:14.904Z,11.83
2023-05-24T21:49:41.687Z,11.60
2023-05-24T21:52:08.614Z,9.60
2023-05-24T21:54:35.387Z,9.97
2023-05-24T21:57:02.082Z,15.07
2023-05-24T21:59:28.676Z,12.97
2023-05-24T22:01:55.760Z,12.83
2023-05-24T22:04:22.526Z,13.47
2023-05-24T22:06:49.183Z,13.83
2023-05-24T22:09:15.852Z,9.97
2023-05-24T22:11:42.475Z,12.83
2023-05-24T22:14:10.330Z,10.57
2023-05-24T22:16:37.009Z,16.63
2023-05-24T22:19:09.448Z,10.23
2023-05-24T22:21:36.869Z,10.67
2023-05-24T22:24:03.489Z,10.33
2023-05-24T22:26:30.566Z,14.43
2023-05-24T22:29:00.748Z,11.43
2023-05-24T22:31:33.158Z,14.17
2023-05-24T22:34:03.608Z,12.83
2023-05-24T22:36:33.272Z,9.97
2023-05-24T22:39:00.780Z,11.57
2023-05-24T22:41:27.922Z,12.07
2023-05-24T22:43:56.142Z,13.80
2023-05-24T22:46:23.350Z,15.20
2023-05-24T22:48:53.689Z,12.07
2023-05-24T22:51:20.660Z,14.60
2023-05-24T22:53:47.957Z,11.00
2023-05-24T22:56:15.044Z,10.57
2023-05-24T22:58:41.734Z,10.03
2023-05-24T23:01:08.450Z,16.63
2023-05-24T23:03:35.247Z,13.13
2023-05-24T23:06:04.295Z,12.67
2023-05-24T23:08:32.140Z,12.00
2023-05-24T23:10:59.593Z,11.57
2023-05-24T23:13:28.025Z,14.33
2023-05-24T23:15:58.579Z,11.70
2023-05-24T23:18:26.514Z,11.77
2023-05-24T23:20:56.717Z,13.03
2023-05-24T23:23:24.726Z,11.67
2023-05-24T23:25:51.633Z,10.67
2023-05-24T23:28:18.358Z,11.57
2023-05-24T23:30:45.518Z,13.97
2023-05-24T23:33:12.126Z,9.80
2023-05-24T23:35:42.019Z,13.67
2023-05-24T23:38:08.764Z,9.20
2023-05-24T23:40:36.513Z,10.73
2023-05-24T23:43:03.669Z,11.33
2023-05-24T23:45:30.465Z,11.93
2023-05-24T23:47:57.606Z,12.30
2023-05-24T23:50:24.542Z,9.40
2023-05-24T23:52:51.258Z,12.53
2023-05-24T23:55:17.834Z,13.13
2023-05-24T23:57:45.821Z,10.23
